createdAt,value
2022-12-08T00:00:54.663Z,2.27
2022-12-08T00:03:22.941Z,2.67
2022-12-08T00:06:09.379Z,2.60
2022-12-08T00:08:55.058Z,2.57
2022-12-08T00:11:24.231Z,2.33
2022-12-08T00:13:53.473Z,2.53
2022-12-08T00:16:21.391Z,2.63
2022-12-08T00:18:49.338Z,2.33
2022-12-08T00:21:17.268Z,2.33
2022-12-08T00:23:45.139Z,2.33
2022-12-08T00:26:13.065Z,2.50
2022-12-08T00:28:40.980Z,2.73
2022-12-08T00:31:10.488Z,2.33
2022-12-08T00:33:38.534Z,2.40
2022-12-08T00:36:08.018Z,2.33
2022-12-08T00:38:36.104Z,2.67
2022-12-08T00:41:04.186Z,2.40
2022-12-08T00:43:32.099Z,2.50
2022-12-08T00:46:00.064Z,2.40
2022-12-08T00:48:29.411Z,2.60
2022-12-08T00:50:57.304Z,2.23
2022-12-08T00:53:25.204Z,2.30
2022-12-08T00:55:53.069Z,2.50
2022-12-08T00:58:20.981Z,2.27
2022-12-08T01:00:48.973Z,2.30
2022-12-08T01:03:16.939Z,2.30
2022-12-08T01:05:46.223Z,2.33
2022-12-08T01:08:14.155Z,2.50
2022-12-08T01:10:42.059Z,2.60
2022-12-08T01:13:09.932Z,2.50
2022-12-08T01:15:38.240Z,2.50
2022-12-08T01:18:06.178Z,2.30
2022-12-08T01:20:34.049Z,2.67
2022-12-08T01:23:03.300Z,2.77
2022-12-08T01:25:31.182Z,2.70
2022-12-08T01:27:59.097Z,2.37
2022-12-08T01:30:27.008Z,2.40
2022-12-08T01:32:54.915Z,2.67
2022-12-08T01:35:22.777Z,2.60
2022-12-08T01:37:50.969Z,2.30
2022-12-08T01:40:20.386Z,2.63
2022-12-08T01:42:48.450Z,2.30
2022-12-08T01:45:18.829Z,2.50
2022-12-08T01:47:47.766Z,2.50
2022-12-08T01:50:15.670Z,2.40
2022-12-08T01:52:45.736Z,2.73
2022-12-08T01:55:16.265Z,2.40
2022-12-08T01:57:47.194Z,2.53
2022-12-08T02:00:16.532Z,2.50
2022-12-08T02:02:50.884Z,2.30
2022-12-08T02:05:19.352Z,2.37
2022-12-08T02:07:47.802Z,2.30
2022-12-08T02:10:17.993Z,2.50
2022-12-08T02:12:47.257Z,2.30
2022-12-08T02:15:15.230Z,2.50
2022-12-08T02:17:50.660Z,2.60
2022-12-08T02:20:39.344Z,2.40
2022-12-08T02:23:11.949Z,2.47
2022-12-08T02:25:45.759Z,2.27
2022-12-08T02:28:30.468Z,2.50
2022-12-08T02:31:01.421Z,2.07
2022-12-08T02:33:44.317Z,2.20
2022-12-08T02:36:14.147Z,2.80
2022-12-08T02:38:47.263Z,2.43
2022-12-08T02:41:20.521Z,2.60
2022-12-08T02:43:49.206Z,2.40
2022-12-08T02:46:19.093Z,2.47
2022-12-08T02:48:48.941Z,2.37
2022-12-08T02:51:16.833Z,2.70
2022-12-08T02:53:44.957Z,2.47
2022-12-08T02:56:20.438Z,2.23
2022-12-08T02:58:56.553Z,2.57
2022-12-08T03:01:34.524Z,2.47
2022-12-08T03:04:07.304Z,2.47
2022-12-08T03:06:36.561Z,2.80
2022-12-08T03:09:06.298Z,2.60
2022-12-08T03:11:37.924Z,2.70
2022-12-08T03:14:06.197Z,2.53
2022-12-08T03:16:34.872Z,2.50
2022-12-08T03:19:10.548Z,2.40
2022-12-08T03:21:38.427Z,2.30
2022-12-08T03:24:08.475Z,2.60
2022-12-08T03:26:39.640Z,2.70
2022-12-08T03:29:07.546Z,2.80
2022-12-08T03:31:37.880Z,2.53
2022-12-08T03:34:07.207Z,2.40
2022-12-08T03:36:35.346Z,2.60
2022-12-08T03:39:03.266Z,2.90
2022-12-08T03:41:31.139Z,2.60
2022-12-08T03:43:59.496Z,2.80
2022-12-08T03:48:55.221Z,2.50
2022-12-08T03:51:24.639Z,2.70
2022-12-08T03:53:52.627Z,2.83
2022-12-08T03:56:23.490Z,2.67
2022-12-08T03:58:51.451Z,2.60
2022-12-08T04:01:19.575Z,2.70
2022-12-08T04:03:47.675Z,2.20
2022-12-08T04:06:15.881Z,2.63
2022-12-08T04:08:45.140Z,2.30
2022-12-08T04:11:13.116Z,2.63
2022-12-08T04:13:41.541Z,2.83
2022-12-08T04:16:09.823Z,2.90
2022-12-08T04:18:37.775Z,2.87
2022-12-08T04:21:06.207Z,2.80
2022-12-08T04:23:34.137Z,2.80
2022-12-08T04:26:03.398Z,2.70
2022-12-08T04:28:31.341Z,2.70
2022-12-08T04:30:59.433Z,2.77
2022-12-08T04:33:27.384Z,2.70
2022-12-08T04:35:55.256Z,2.40
2022-12-08T04:38:23.336Z,2.73
2022-12-08T04:40:51.451Z,2.63
2022-12-08T04:43:20.752Z,2.83
2022-12-08T04:45:48.779Z,2.83
2022-12-08T04:48:16.693Z,2.63
2022-12-08T04:50:45.641Z,3.00
2022-12-08T04:53:13.824Z,3.00
2022-12-08T04:55:43.688Z,3.37
2022-12-08T04:58:13.674Z,4.13
2022-12-08T05:00:42.959Z,5.00
2022-12-08T05:03:11.031Z,5.47
2022-12-08T05:05:38.938Z,5.70
2022-12-08T05:08:07.605Z,8.37
2022-12-08T05:10:35.627Z,7.67
2022-12-08T05:13:03.490Z,8.30
2022-12-08T05:15:31.412Z,8.57
2022-12-08T05:18:00.687Z,9.27
2022-12-08T05:20:28.789Z,8.87
2022-12-08T05:22:56.677Z,10.40
2022-12-08T05:25:24.632Z,10.73
2022-12-08T05:28:01.695Z,11.67
2022-12-08T05:30:39.537Z,13.07
2022-12-08T05:33:08.780Z,12.00
2022-12-08T05:35:36.684Z,13.60
2022-12-08T05:38:04.599Z,13.67
2022-12-08T05:40:32.527Z,13.13
2022-12-08T05:43:00.432Z,14.77
2022-12-08T05:45:28.416Z,14.13
2022-12-08T05:47:56.376Z,13.30
2022-12-08T05:50:25.805Z,14.63
2022-12-08T05:52:56.509Z,15.23
2022-12-08T05:55:24.552Z,14.33
2022-12-08T05:57:52.572Z,13.87
2022-12-08T06:00:21.935Z,14.70
2022-12-08T06:02:49.956Z,14.03
2022-12-08T06:05:18.187Z,13.97
2022-12-08T06:07:47.641Z,13.40
2022-12-08T06:10:15.587Z,12.07
2022-12-08T06:12:43.752Z,13.60
2022-12-08T06:15:12.030Z,12.33
2022-12-08T06:17:39.949Z,12.50
2022-12-08T06:20:09.078Z,12.63
2022-12-08T06:22:37.105Z,13.13
2022-12-08T06:25:09.950Z,12.20
2022-12-08T06:27:38.230Z,11.53
2022-12-08T06:30:07.797Z,11.67
2022-12-08T06:32:35.834Z,11.63
2022-12-08T06:35:03.721Z,11.67
2022-12-08T06:37:31.632Z,11.87
2022-12-08T06:39:59.544Z,11.67
2022-12-08T06:42:47.173Z,10.67
2022-12-08T06:45:15.952Z,10.87
2022-12-08T06:47:44.002Z,10.97
2022-12-08T06:50:13.830Z,9.67
2022-12-08T06:52:51.726Z,11.00
2022-12-08T06:55:57.410Z,10.73
2022-12-08T06:58:15.780Z,10.27
2022-12-08T07:00:43.841Z,10.20
2022-12-08T07:03:12.329Z,9.47
2022-12-08T07:05:40.256Z,9.30
2022-12-08T07:08:08.977Z,10.00
2022-12-08T07:10:36.992Z,10.87
2022-12-08T07:13:04.882Z,9.80
2022-12-08T07:15:34.293Z,9.27
2022-12-08T07:18:02.188Z,9.07
2022-12-08T07:20:30.118Z,8.53
2022-12-08T07:22:58.011Z,9.77
2022-12-08T07:25:26.180Z,8.17
2022-12-08T07:27:54.228Z,8.93
2022-12-08T07:30:22.221Z,8.27
2022-12-08T07:32:51.452Z,8.53
2022-12-08T07:35:19.628Z,8.10
2022-12-08T07:37:47.556Z,7.87
2022-12-08T07:40:16.069Z,8.63
2022-12-08T07:42:43.989Z,8.13
2022-12-08T07:45:12.394Z,7.67
2022-12-08T07:47:40.316Z,7.47
2022-12-08T07:50:10.249Z,7.90
2022-12-08T07:52:38.178Z,8.17
2022-12-08T07:55:06.908Z,7.13
2022-12-08T07:57:34.817Z,7.00
2022-12-08T08:00:04.198Z,7.70
2022-12-08T08:02:39.697Z,7.30
2022-12-08T08:05:10.576Z,6.53
2022-12-08T08:07:38.674Z,6.90
2022-12-08T08:10:08.088Z,7.30
2022-12-08T08:12:36.572Z,7.30
2022-12-08T08:15:04.887Z,7.63
2022-12-08T08:17:32.892Z,6.60
2022-12-08T08:20:01.321Z,7.37
2022-12-08T08:22:30.882Z,6.60
2022-12-08T08:24:59.000Z,6.13
2022-12-08T08:27:26.954Z,7.07
2022-12-08T08:29:54.891Z,6.97
2022-12-08T08:32:22.758Z,6.70
2022-12-08T08:34:50.826Z,6.70
2022-12-08T08:37:18.835Z,5.70
2022-12-08T08:39:48.141Z,6.17
2022-12-08T08:42:16.033Z,6.30
2022-12-08T08:44:43.924Z,6.23
2022-12-08T08:47:11.920Z,6.73
2022-12-08T08:49:39.806Z,6.17
2022-12-08T08:52:07.700Z,6.50
2022-12-08T08:54:35.583Z,6.30
2022-12-08T08:57:04.985Z,5.73
2022-12-08T08:59:32.900Z,6.23
2022-12-08T09:02:00.838Z,5.97
2022-12-08T09:04:28.863Z,5.87
2022-12-08T09:06:56.829Z,5.70
2022-12-08T09:09:25.102Z,6.23
2022-12-08T09:11:52.995Z,5.80
2022-12-08T09:14:23.052Z,5.73
2022-12-08T09:16:51.201Z,5.53
2022-12-08T09:19:19.131Z,5.93
2022-12-08T09:21:47.112Z,5.60
2022-12-08T09:24:16.497Z,5.57
2022-12-08T09:26:44.696Z,5.70
2022-12-08T09:29:13.617Z,5.97
2022-12-08T09:31:43.358Z,5.20
2022-12-08T09:34:11.691Z,5.73
2022-12-08T09:36:39.629Z,5.60
2022-12-08T09:39:07.532Z,5.30
2022-12-08T09:41:43.272Z,5.07
2022-12-08T09:44:22.905Z,5.50
2022-12-08T09:46:53.000Z,4.90
2022-12-08T09:49:22.595Z,5.30
2022-12-08T09:51:50.542Z,5.17
2022-12-08T09:54:19.882Z,5.20
2022-12-08T09:56:47.974Z,5.70
2022-12-08T09:59:23.761Z,4.63
2022-12-08T10:01:53.129Z,4.57
2022-12-08T10:04:24.288Z,5.10
2022-12-08T10:07:01.372Z,4.70
2022-12-08T10:09:33.398Z,4.80
2022-12-08T10:12:03.561Z,3.83
2022-12-08T10:14:34.923Z,3.87
2022-12-08T10:17:05.935Z,4.63
2022-12-08T10:19:33.988Z,4.57
2022-12-08T10:22:01.916Z,4.03
2022-12-08T10:24:33.462Z,4.30
2022-12-08T10:27:01.717Z,4.33
2022-12-08T10:29:29.620Z,4.20
2022-12-08T10:31:58.245Z,4.27
2022-12-08T10:34:28.069Z,4.33
2022-12-08T10:36:57.037Z,4.40
2022-12-08T10:39:32.317Z,4.27
2022-12-08T10:42:07.506Z,4.60
2022-12-08T10:44:36.679Z,3.80
2022-12-08T10:47:13.534Z,3.87
2022-12-08T10:49:42.966Z,4.17
2022-12-08T10:52:15.809Z,4.00
2022-12-08T10:54:43.876Z,4.30
2022-12-08T10:57:15.199Z,3.90
2022-12-08T10:59:43.229Z,4.23
2022-12-08T11:02:11.168Z,3.83
2022-12-08T11:04:39.237Z,3.73
2022-12-08T11:07:10.904Z,3.90
2022-12-08T11:09:41.066Z,3.80
2022-12-08T11:12:10.272Z,3.90
2022-12-08T11:14:49.714Z,3.90
2022-12-08T11:17:18.580Z,3.67
2022-12-08T11:19:47.808Z,3.77
2022-12-08T11:22:23.614Z,3.97
2022-12-08T11:24:58.277Z,3.83
2022-12-08T11:27:26.345Z,3.80
2022-12-08T11:29:54.505Z,3.63
2022-12-08T11:32:22.396Z,3.60
2022-12-08T11:34:51.861Z,4.00
2022-12-08T11:37:21.594Z,3.73
2022-12-08T11:39:54.604Z,3.87
2022-12-08T11:42:25.812Z,4.07
2022-12-08T11:44:55.622Z,3.90
2022-12-08T11:47:25.547Z,3.87
2022-12-08T11:49:56.737Z,3.83
2022-12-08T11:52:28.326Z,3.83
2022-12-08T11:55:00.788Z,3.90
2022-12-08T11:57:28.858Z,3.97
2022-12-08T11:59:57.767Z,3.43
2022-12-08T12:02:26.489Z,3.50
2022-12-08T12:04:56.457Z,3.47
2022-12-08T12:07:56.175Z,3.60
2022-12-08T12:10:59.011Z,3.53
2022-12-08T12:13:39.698Z,3.40
2022-12-08T12:16:18.177Z,3.47
2022-12-08T12:18:46.790Z,3.53
2022-12-08T12:21:18.368Z,3.77
2022-12-08T12:23:47.423Z,3.33
2022-12-08T12:26:20.582Z,3.47
2022-12-08T12:28:52.286Z,3.57
2022-12-08T12:31:22.582Z,3.43
2022-12-08T12:33:50.538Z,3.27
2022-12-08T12:36:18.459Z,3.20
2022-12-08T12:39:03.409Z,3.17
2022-12-08T12:41:36.942Z,3.33
2022-12-08T12:44:24.214Z,3.20
2022-12-08T12:46:56.914Z,2.60
2022-12-08T12:49:50.562Z,3.00
2022-12-08T12:52:38.071Z,3.00
2022-12-08T12:55:45.763Z,2.97
2022-12-08T12:58:23.694Z,2.90
2022-12-08T13:00:51.611Z,3.07
2022-12-08T13:03:19.512Z,3.10
2022-12-08T13:05:50.074Z,2.50
2022-12-08T13:08:20.630Z,3.00
2022-12-08T13:10:51.253Z,3.00
2022-12-08T13:13:21.168Z,2.93
2022-12-08T13:15:50.599Z,2.80
2022-12-08T13:18:20.747Z,2.63
2022-12-08T13:20:51.242Z,2.63
2022-12-08T13:23:30.627Z,2.60
2022-12-08T13:26:25.921Z,2.60
2022-12-08T13:29:25.205Z,2.80
2022-12-08T13:31:54.003Z,2.80
2022-12-08T13:34:25.592Z,2.50
2022-12-08T13:37:02.131Z,2.63
2022-12-08T13:39:33.140Z,2.40
2022-12-08T13:42:03.659Z,2.93
2022-12-08T13:47:34.225Z,2.50
2022-12-08T13:58:33.338Z,2.60
2022-12-08T14:01:06.192Z,2.53
2022-12-08T14:03:35.659Z,2.87
2022-12-08T14:06:12.892Z,2.40
2022-12-08T14:09:02.599Z,2.57
2022-12-08T14:11:35.643Z,2.37
2022-12-08T14:14:04.884Z,2.60
2022-12-08T14:16:38.622Z,2.40
2022-12-08T14:19:08.056Z,2.27
2022-12-08T14:21:36.536Z,2.47
2022-12-08T14:24:04.591Z,2.40
2022-12-08T14:26:35.267Z,2.30
2022-12-08T14:29:03.270Z,2.47
2022-12-08T14:31:31.476Z,2.20
2022-12-08T14:34:00.733Z,2.30
2022-12-08T14:36:28.989Z,2.10
2022-12-08T14:38:57.081Z,2.23
2022-12-08T14:41:29.096Z,2.00
2022-12-08T14:44:01.042Z,2.40
2022-12-08T14:46:29.200Z,2.30
2022-12-08T14:48:58.133Z,2.60
2022-12-08T14:51:30.465Z,2.70
2022-12-08T14:53:59.805Z,2.33
2022-12-08T14:56:29.840Z,2.37
2022-12-08T14:59:06.222Z,2.40
2022-12-08T15:01:34.222Z,2.30
2022-12-08T15:04:03.762Z,2.37
2022-12-08T15:06:33.029Z,2.50
2022-12-08T15:09:00.996Z,2.20
2022-12-08T15:11:32.796Z,2.50
2022-12-08T15:14:00.730Z,2.30
2022-12-08T15:16:31.881Z,2.23
2022-12-08T15:19:05.494Z,2.30
2022-12-08T15:21:37.088Z,2.60
2022-12-08T15:24:05.476Z,2.20
2022-12-08T15:26:35.869Z,2.20
2022-12-08T15:29:11.285Z,1.90
2022-12-08T15:31:39.531Z,2.20
2022-12-08T15:34:07.579Z,2.37
2022-12-08T15:36:38.032Z,2.37
2022-12-08T15:39:06.740Z,2.20
2022-12-08T15:41:34.631Z,2.07
2022-12-08T15:44:02.565Z,2.20
2022-12-08T15:46:30.788Z,2.33
2022-12-08T15:48:58.800Z,2.33
2022-12-08T15:51:26.767Z,1.90
2022-12-08T15:53:56.038Z,2.40
2022-12-08T15:56:28.296Z,2.73
2022-12-08T15:58:57.835Z,3.37
2022-12-08T16:01:26.532Z,4.23
2022-12-08T16:04:47.768Z,3.47
2022-12-08T16:07:20.860Z,4.10
2022-12-08T16:09:33.153Z,4.10
2022-12-08T16:12:18.554Z,5.83
2022-12-08T16:15:47.339Z,5.90
2022-12-08T16:17:34.785Z,6.13
2022-12-08T16:20:03.252Z,5.93
2022-12-08T16:25:23.067Z,7.50
2022-12-08T16:28:05.462Z,7.87
2022-12-08T16:30:40.415Z,7.40
2022-12-08T16:33:08.490Z,7.13
2022-12-08T16:35:36.765Z,7.57
2022-12-08T16:38:04.720Z,8.40
2022-12-08T16:40:54.080Z,7.80
2022-12-08T16:43:21.056Z,7.93
2022-12-08T16:45:49.026Z,7.47
2022-12-08T16:48:17.108Z,7.80
2022-12-08T16:50:45.864Z,7.70
2022-12-08T16:53:14.213Z,8.20
2022-12-08T16:55:45.996Z,7.73
2022-12-08T16:58:14.133Z,7.80
2022-12-08T17:00:42.062Z,7.70
2022-12-08T17:03:09.985Z,7.97
2022-12-08T17:05:38.074Z,8.17
2022-12-08T17:08:06.391Z,8.10
2022-12-08T17:10:38.325Z,8.43
2022-12-08T17:13:07.727Z,8.67
2022-12-08T17:15:35.779Z,8.17
2022-12-08T17:18:04.104Z,8.70
2022-12-08T17:20:34.055Z,9.07
2022-12-08T17:23:02.010Z,7.43
2022-12-08T17:25:29.935Z,8.60
2022-12-08T17:27:57.848Z,8.17
2022-12-08T17:30:27.277Z,8.40
2022-12-08T17:32:55.171Z,7.87
2022-12-08T17:35:23.374Z,8.43
2022-12-08T17:37:51.485Z,8.70
2022-12-08T17:40:19.428Z,7.67
2022-12-08T17:42:47.589Z,8.67
2022-12-08T17:45:15.632Z,7.53
2022-12-08T17:47:44.943Z,7.50
2022-12-08T17:50:12.836Z,8.30
2022-12-08T17:52:40.864Z,8.20
2022-12-08T17:55:09.424Z,8.27
2022-12-08T17:57:37.332Z,8.20
2022-12-08T18:00:06.717Z,8.50
2022-12-08T18:02:39.874Z,8.53
2022-12-08T18:05:09.806Z,8.13
2022-12-08T18:07:37.961Z,7.90
2022-12-08T18:10:06.852Z,8.27
2022-12-08T18:12:34.912Z,7.83
2022-12-08T18:15:02.834Z,7.73
2022-12-08T18:17:30.779Z,8.10
2022-12-08T18:19:59.006Z,7.60
2022-12-08T18:22:28.283Z,7.57
2022-12-08T18:24:56.198Z,7.37
2022-12-08T18:27:24.342Z,8.07
2022-12-08T18:29:52.284Z,7.83
2022-12-08T18:32:23.420Z,8.30
2022-12-08T18:34:51.542Z,7.63
2022-12-08T18:37:19.523Z,8.70
2022-12-08T18:39:48.953Z,7.60
2022-12-08T18:42:28.148Z,7.70
2022-12-08T18:44:59.175Z,6.67
2022-12-08T18:47:27.230Z,7.57
2022-12-08T18:49:55.178Z,6.53
2022-12-08T18:52:30.987Z,7.43
2022-12-08T18:55:08.836Z,6.80
2022-12-08T18:57:38.448Z,7.27
2022-12-08T19:00:07.957Z,6.87
2022-12-08T19:02:36.252Z,6.63
2022-12-08T19:05:04.248Z,7.07
2022-12-08T19:07:32.172Z,6.77
2022-12-08T19:10:01.695Z,6.80
2022-12-08T19:12:29.609Z,6.73
2022-12-08T19:14:58.005Z,7.13
2022-12-08T19:17:26.530Z,6.77
2022-12-08T19:19:54.420Z,6.93
2022-12-08T19:22:22.359Z,7.07
2022-12-08T19:24:50.470Z,6.40
2022-12-08T19:27:19.769Z,5.60
2022-12-08T19:29:47.777Z,6.33
2022-12-08T19:32:15.708Z,7.07
2022-12-08T19:34:43.800Z,6.97
2022-12-08T19:37:12.740Z,6.33
2022-12-08T19:39:58.147Z,6.90
2022-12-08T19:42:45.183Z,6.57
2022-12-08T19:45:14.541Z,6.50
2022-12-08T19:47:42.680Z,6.13
2022-12-08T19:50:29.474Z,6.93
2022-12-08T19:52:57.429Z,6.60
2022-12-08T19:55:25.663Z,6.10
2022-12-08T19:57:54.925Z,6.37
2022-12-08T20:00:23.089Z,5.77
2022-12-08T20:02:51.544Z,6.37
2022-12-08T20:05:19.642Z,6.27
2022-12-08T20:07:47.604Z,6.47
2022-12-08T20:10:17.841Z,7.10
2022-12-08T20:12:45.764Z,6.80
2022-12-08T20:15:15.146Z,6.37
2022-12-08T20:17:43.112Z,6.07
2022-12-08T20:20:11.789Z,6.10
2022-12-08T20:22:40.064Z,6.43
2022-12-08T20:25:12.726Z,5.43
2022-12-08T20:27:41.189Z,6.07
2022-12-08T20:30:16.480Z,5.67
2022-12-08T20:32:46.648Z,6.90
2022-12-08T20:35:15.346Z,6.40
2022-12-08T20:37:43.393Z,7.20
2022-12-08T20:40:11.822Z,6.50
2022-12-08T20:42:39.798Z,5.70
2022-12-08T20:45:09.454Z,6.03
2022-12-08T20:47:37.953Z,5.97
2022-12-08T20:50:08.796Z,5.80
2022-12-08T20:52:38.310Z,5.90
2022-12-08T20:55:06.985Z,5.80
2022-12-08T20:57:35.005Z,5.73
2022-12-08T21:00:03.273Z,6.33
2022-12-08T21:02:31.497Z,5.70
2022-12-08T21:04:59.817Z,6.07
2022-12-08T21:07:29.249Z,5.57
2022-12-08T21:09:57.245Z,5.23
2022-12-08T21:12:26.353Z,5.80
2022-12-08T21:14:54.359Z,6.07
2022-12-08T21:17:22.861Z,5.13
2022-12-08T21:19:50.871Z,5.43
2022-12-08T21:22:18.795Z,5.87
2022-12-08T21:24:48.440Z,5.77
2022-12-08T21:27:16.448Z,5.73
2022-12-08T21:29:44.330Z,5.13
2022-12-08T21:32:12.313Z,5.67
2022-12-08T21:34:40.462Z,5.20
2022-12-08T21:37:08.579Z,5.53
2022-12-08T21:39:37.361Z,5.67
2022-12-08T21:42:27.900Z,5.60
2022-12-08T21:44:58.849Z,5.73
2022-12-08T21:47:27.000Z,5.70
2022-12-08T21:49:55.734Z,5.10
2022-12-08T21:52:23.692Z,5.37
2022-12-08T21:54:51.782Z,5.40
2022-12-08T21:57:21.547Z,4.87
2022-12-08T21:59:49.473Z,5.20
2022-12-08T22:02:22.149Z,5.33
2022-12-08T22:04:52.494Z,5.50
2022-12-08T22:07:20.739Z,5.23
2022-12-08T22:09:49.183Z,4.90
2022-12-08T22:12:18.276Z,4.60
2022-12-08T22:14:49.911Z,4.90
2022-12-08T22:17:18.684Z,5.03
2022-12-08T22:19:47.125Z,4.63
2022-12-08T22:22:15.489Z,4.30
2022-12-08T22:24:43.649Z,4.20
2022-12-08T22:27:12.023Z,5.20
2022-12-08T22:29:39.926Z,4.73
2022-12-08T22:32:09.229Z,4.43
2022-12-08T22:34:37.576Z,4.90
2022-12-08T22:37:05.674Z,5.00
2022-12-08T22:39:33.701Z,4.53
2022-12-08T22:42:01.589Z,4.57
2022-12-08T22:44:29.759Z,4.77
2022-12-08T22:46:58.151Z,4.70
2022-12-08T22:49:27.897Z,4.43
2022-12-08T22:51:55.810Z,4.50
2022-12-08T22:54:23.861Z,4.00
2022-12-08T22:56:51.929Z,4.10
2022-12-08T22:59:20.006Z,4.43
2022-12-08T23:01:47.970Z,4.77
2022-12-08T23:04:18.290Z,4.27
2022-12-08T23:06:47.881Z,4.30
2022-12-08T23:09:15.949Z,4.77
2022-12-08T23:11:44.278Z,4.43
2022-12-08T23:14:12.466Z,4.43
2022-12-08T23:16:40.522Z,4.40
2022-12-08T23:19:08.645Z,4.37
2022-12-08T23:21:36.708Z,4.53
2022-12-08T23:24:06.538Z,4.47
2022-12-08T23:26:35.325Z,4.27
2022-12-08T23:29:03.594Z,4.23
2022-12-08T23:31:31.917Z,4.40
2022-12-08T23:33:59.959Z,4.50
2022-12-08T23:36:27.879Z,4.43
2022-12-08T23:38:55.908Z,4.50
2022-12-08T23:41:28.031Z,4.43
2022-12-08T23:43:55.996Z,4.50
2022-12-08T23:46:24.680Z,4.60
2022-12-08T23:48:52.803Z,4.13
2022-12-08T23:51:21.302Z,4.30
2022-12-08T23:53:49.291Z,4.20
2022-12-08T23:56:18.219Z,4.20
2022-12-08T23:58:47.744Z,3.90
